sensor_id;sensor_type;location;lat;lon;timestamp;pressure;altitude;pressure_sealevel;temperature;humidity
72961;BME280;61141;46.204;19.774;2023-05-12T00:02:04;100400.75;;;11.36;97.16
72961;BME280;61141;46.204;19.774;2023-05-12T00:05:08;100385.63;;;11.19;97.83
72961;BME280;61141;46.204;19.774;2023-05-12T00:08:10;100388.22;;;11.35;97.21
72961;BME280;61141;46.204;19.774;2023-05-12T00:11:14;100375.66;;;11.34;96.65
72961;BME280;61141;46.204;19.774;2023-05-12T00:14:16;100382.84;;;11.45;96.37
72961;BME280;61141;46.204;19.774;2023-05-12T00:17:19;100380.34;;;11.33;97.20
72961;BME280;61141;46.204;19.774;2023-05-12T00:20:22;100377.53;;;11.30;96.87
72961;BME280;61141;46.204;19.774;2023-05-12T00:23:25;100381.72;;;11.50;95.79
72961;BME280;61141;46.204;19.774;2023-05-12T00:26:28;100381.19;;;11.37;96.21
72961;BME280;61141;46.204;19.774;2023-05-12T00:29:32;100382.78;;;11.42;96.25
72961;BME280;61141;46.204;19.774;2023-05-12T00:32:35;100388.41;;;11.52;95.62
72961;BME280;61141;46.204;19.774;2023-05-12T00:35:38;100392.78;;;11.57;95.06
72961;BME280;61141;46.204;19.774;2023-05-12T00:38:40;100361.53;;;11.32;96.23
72961;BME280;61141;46.204;19.774;2023-05-12T00:41:44;100379.97;;;11.35;96.32
72961;BME280;61141;46.204;19.774;2023-05-12T00:44:46;100383.63;;;11.46;96.05
72961;BME280;61141;46.204;19.774;2023-05-12T00:47:50;100386.78;;;11.48;95.59
72961;BME280;61141;46.204;19.774;2023-05-12T00:50:55;100377.06;;;11.20;97.34
72961;BME280;61141;46.204;19.774;2023-05-12T00:53:59;100381.12;;;11.34;96.52
72961;BME280;61141;46.204;19.774;2023-05-12T00:57:02;100383.94;;;11.41;96.19
72961;BME280;61141;46.204;19.774;2023-05-12T01:00:05;100392.28;;;11.48;96.00
72961;BME280;61141;46.204;19.774;2023-05-12T01:03:09;100392.28;;;11.48;95.83
72961;BME280;61141;46.204;19.774;2023-05-12T01:06:25;100387.41;;;11.34;97.07
72961;BME280;61141;46.204;19.774;2023-05-12T01:09:31;100394.25;;;11.17;97.91
72961;BME280;61141;46.204;19.774;2023-05-12T01:12:35;100393.69;;;11.35;97.41
72961;BME280;61141;46.204;19.774;2023-05-12T01:15:40;100396.72;;;11.30;97.92
72961;BME280;61141;46.204;19.774;2023-05-12T01:18:45;100392.91;;;11.34;97.38
72961;BME280;61141;46.204;19.774;2023-05-12T01:21:52;100400.31;;;11.34;97.17
72961;BME280;61141;46.204;19.774;2023-05-12T01:24:58;100397.25;;;11.09;98.45
72961;BME280;61141;46.204;19.774;2023-05-12T01:28:01;100393.97;;;11.26;98.11
72961;BME280;61141;46.204;19.774;2023-05-12T01:31:07;100398.25;;;11.24;98.24
72961;BME280;61141;46.204;19.774;2023-05-12T01:34:15;100399.19;;;11.38;97.69
72961;BME280;61141;46.204;19.774;2023-05-12T01:37:21;100406.97;;;11.33;97.64
72961;BME280;61141;46.204;19.774;2023-05-12T01:40:26;100399.59;;;11.37;97.02
72961;BME280;61141;46.204;19.774;2023-05-12T01:43:29;100400.66;;;11.29;97.66
72961;BME280;61141;46.204;19.774;2023-05-12T01:46:32;100408.22;;;11.39;97.75
72961;BME280;61141;46.204;19.774;2023-05-12T01:49:36;100400.25;;;11.27;97.69
72961;BME280;61141;46.204;19.774;2023-05-12T01:52:39;100389.22;;;11.23;97.82
72961;BME280;61141;46.204;19.774;2023-05-12T01:55:43;100400.13;;;11.49;96.54
72961;BME280;61141;46.204;19.774;2023-05-12T01:58:46;100391.44;;;11.44;96.70
72961;BME280;61141;46.204;19.774;2023-05-12T02:01:49;100400.00;;;11.39;97.80
72961;BME280;61141;46.204;19.774;2023-05-12T02:04:53;100373.47;;;11.16;98.46
72961;BME280;61141;46.204;19.774;2023-05-12T02:07:56;100394.97;;;11.44;97.78
72961;BME280;61141;46.204;19.774;2023-05-12T02:11:08;100392.16;;;11.37;97.58
72961;BME280;61141;46.204;19.774;2023-05-12T02:14:12;100370.78;;;11.20;98.25
72961;BME280;61141;46.204;19.774;2023-05-12T02:17:15;100390.38;;;11.22;99.19
72961;BME280;61141;46.204;19.774;2023-05-12T02:20:19;100386.63;;;11.34;98.36
72961;BME280;61141;46.204;19.774;2023-05-12T02:23:22;100379.59;;;11.06;99.79
72961;BME280;61141;46.204;19.774;2023-05-12T02:26:25;100378.53;;;11.14;99.66
72961;BME280;61141;46.204;19.774;2023-05-12T02:29:28;100378.22;;;11.19;99.72
72961;BME280;61141;46.204;19.774;2023-05-12T02:32:31;100373.53;;;11.20;98.87
72961;BME280;61141;46.204;19.774;2023-05-12T02:35:34;100382.22;;;11.26;99.26
72961;BME280;61141;46.204;19.774;2023-05-12T02:38:37;100375.72;;;11.41;97.97
72961;BME280;61141;46.204;19.774;2023-05-12T02:41:42;100375.81;;;11.48;97.77
72961;BME280;61141;46.204;19.774;2023-05-12T02:44:44;100368.56;;;11.33;97.98
72961;BME280;61141;46.204;19.774;2023-05-12T02:47:47;100382.38;;;11.40;97.73
72961;BME280;61141;46.204;19.774;2023-05-12T02:50:50;100372.22;;;11.44;97.79
72961;BME280;61141;46.204;19.774;2023-05-12T02:53:53;100378.19;;;11.49;97.15
72961;BME280;61141;46.204;19.774;2023-05-12T02:56:56;100374.97;;;11.44;97.28
72961;BME280;61141;46.204;19.774;2023-05-12T03:00:00;100378.28;;;11.56;96.52
72961;BME280;61141;46.204;19.774;2023-05-12T03:03:04;100378.09;;;11.42;96.92
72961;BME280;61141;46.204;19.774;2023-05-12T03:06:08;100378.22;;;11.53;96.84
72961;BME280;61141;46.204;19.774;2023-05-12T03:09:11;100375.34;;;11.42;97.14
72961;BME280;61141;46.204;19.774;2023-05-12T03:12:15;100366.84;;;11.51;96.26
72961;BME280;61141;46.204;19.774;2023-05-12T03:15:18;100368.34;;;11.45;96.70
72961;BME280;61141;46.204;19.774;2023-05-12T03:18:21;100365.31;;;11.53;96.44
72961;BME280;61141;46.204;19.774;2023-05-12T03:21:24;100356.34;;;11.60;94.54
72961;BME280;61141;46.204;19.774;2023-05-12T03:24:28;100365.59;;;11.45;95.82
72961;BME280;61141;46.204;19.774;2023-05-12T03:27:31;100372.78;;;11.56;95.45
72961;BME280;61141;46.204;19.774;2023-05-12T03:30:37;100369.59;;;11.51;95.38
72961;BME280;61141;46.204;19.774;2023-05-12T03:33:40;100376.09;;;11.39;95.93
72961;BME280;61141;46.204;19.774;2023-05-12T03:36:43;100365.41;;;11.31;95.94
72961;BME280;61141;46.204;19.774;2023-05-12T03:39:47;100380.91;;;11.49;95.66
72961;BME280;61141;46.204;19.774;2023-05-12T03:42:50;100388.00;;;11.50;95.15
72961;BME280;61141;46.204;19.774;2023-05-12T03:45:52;100389.19;;;11.53;95.13
72961;BME280;61141;46.204;19.774;2023-05-12T03:48:56;100384.84;;;11.48;95.01
72961;BME280;61141;46.204;19.774;2023-05-12T03:52:00;100380.16;;;11.52;94.58
72961;BME280;61141;46.204;19.774;2023-05-12T03:55:04;100387.59;;;11.52;94.89
72961;BME280;61141;46.204;19.774;2023-05-12T03:58:08;100389.59;;;11.55;94.15
72961;BME280;61141;46.204;19.774;2023-05-12T04:01:11;100392.91;;;11.67;93.63
72961;BME280;61141;46.204;19.774;2023-05-12T04:04:14;100391.00;;;11.71;93.08
72961;BME280;61141;46.204;19.774;2023-05-12T04:07:17;100399.63;;;11.70;93.73
72961;BME280;61141;46.204;19.774;2023-05-12T04:10:21;100401.22;;;11.74;92.97
72961;BME280;61141;46.204;19.774;2023-05-12T04:13:24;100397.50;;;11.60;93.71
72961;BME280;61141;46.204;19.774;2023-05-12T04:16:28;100400.22;;;11.56;93.52
72961;BME280;61141;46.204;19.774;2023-05-12T04:19:32;100415.53;;;11.61;93.54
72961;BME280;61141;46.204;19.774;2023-05-12T04:22:35;100413.00;;;11.75;93.29
72961;BME280;61141;46.204;19.774;2023-05-12T04:25:39;100422.88;;;11.83;92.14
72961;BME280;61141;46.204;19.774;2023-05-12T04:28:42;100425.75;;;11.94;91.60
72961;BME280;61141;46.204;19.774;2023-05-12T04:31:45;100428.38;;;11.83;91.84
72961;BME280;61141;46.204;19.774;2023-05-12T04:34:48;100431.22;;;11.90;92.09
72961;BME280;61141;46.204;19.774;2023-05-12T04:37:52;100418.25;;;11.87;91.19
72961;BME280;61141;46.204;19.774;2023-05-12T04:40:59;100434.38;;;11.92;91.96
72961;BME280;61141;46.204;19.774;2023-05-12T04:44:02;100437.94;;;11.96;91.12
72961;BME280;61141;46.204;19.774;2023-05-12T04:47:05;100438.81;;;12.04;91.07
72961;BME280;61141;46.204;19.774;2023-05-12T04:50:09;100436.13;;;12.11;90.73
72961;BME280;61141;46.204;19.774;2023-05-12T04:53:14;100438.03;;;12.03;90.86
72961;BME280;61141;46.204;19.774;2023-05-12T04:56:17;100429.50;;;12.15;90.35
72961;BME280;61141;46.204;19.774;2023-05-12T04:59:20;100429.94;;;12.17;90.60
72961;BME280;61141;46.204;19.774;2023-05-12T05:02:24;100436.44;;;12.43;88.63
72961;BME280;61141;46.204;19.774;2023-05-12T05:05:27;100437.19;;;12.40;88.56
72961;BME280;61141;46.204;19.774;2023-05-12T05:08:30;100428.62;;;12.48;87.68
72961;BME280;61141;46.204;19.774;2023-05-12T05:11:33;100438.41;;;12.42;88.21
72961;BME280;61141;46.204;19.774;2023-05-12T05:14:36;100439.50;;;12.34;90.02
72961;BME280;61141;46.204;19.774;2023-05-12T05:17:40;100434.50;;;12.47;89.38
72961;BME280;61141;46.204;19.774;2023-05-12T05:20:45;100417.53;;;12.37;88.47
72961;BME280;61141;46.204;19.774;2023-05-12T05:23:59;100431.66;;;12.36;88.95
72961;BME280;61141;46.204;19.774;2023-05-12T05:27:02;100422.91;;;12.23;89.68
72961;BME280;61141;46.204;19.774;2023-05-12T05:30:06;100431.19;;;12.27;89.01
72961;BME280;61141;46.204;19.774;2023-05-12T05:33:10;100431.94;;;12.24;89.02
72961;BME280;61141;46.204;19.774;2023-05-12T05:36:15;100432.59;;;12.51;88.52
72961;BME280;61141;46.204;19.774;2023-05-12T05:39:18;100414.06;;;12.44;88.23
72961;BME280;61141;46.204;19.774;2023-05-12T05:42:21;100434.97;;;12.56;87.66
72961;BME280;61141;46.204;19.774;2023-05-12T05:45:23;100427.97;;;12.65;87.04
72961;BME280;61141;46.204;19.774;2023-05-12T05:48:29;100435.22;;;12.36;87.50
72961;BME280;61141;46.204;19.774;2023-05-12T05:51:32;100425.84;;;12.45;87.42
72961;BME280;61141;46.204;19.774;2023-05-12T05:54:35;100435.84;;;12.67;87.24
72961;BME280;61141;46.204;19.774;2023-05-12T05:57:38;100440.28;;;12.82;86.60
72961;BME280;61141;46.204;19.774;2023-05-12T06:00:42;100447.31;;;12.79;86.01
72961;BME280;61141;46.204;19.774;2023-05-12T06:03:45;100440.00;;;13.01;85.59
72961;BME280;61141;46.204;19.774;2023-05-12T06:06:48;100447.09;;;13.02;84.29
72961;BME280;61141;46.204;19.774;2023-05-12T06:09:54;100447.91;;;13.03;84.50
72961;BME280;61141;46.204;19.774;2023-05-12T06:12:57;100446.97;;;12.81;84.79
72961;BME280;61141;46.204;19.774;2023-05-12T06:15:59;100433.31;;;12.95;84.53
72961;BME280;61141;46.204;19.774;2023-05-12T06:19:02;100441.50;;;12.88;83.79
72961;BME280;61141;46.204;19.774;2023-05-12T06:22:05;100450.94;;;12.90;84.47
72961;BME280;61141;46.204;19.774;2023-05-12T06:25:08;100452.12;;;12.93;83.59
72961;BME280;61141;46.204;19.774;2023-05-12T06:28:12;100440.03;;;12.50;84.18
72961;BME280;61141;46.204;19.774;2023-05-12T06:31:15;100451.44;;;13.03;83.48
72961;BME280;61141;46.204;19.774;2023-05-12T06:34:18;100451.78;;;12.98;82.98
72961;BME280;61141;46.204;19.774;2023-05-12T06:37:21;100448.34;;;13.08;81.37
72961;BME280;61141;46.204;19.774;2023-05-12T06:40:24;100453.63;;;13.38;81.42
72961;BME280;61141;46.204;19.774;2023-05-12T06:43:27;100451.28;;;13.40;80.61
72961;BME280;61141;46.204;19.774;2023-05-12T06:46:31;100454.56;;;13.74;79.20
72961;BME280;61141;46.204;19.774;2023-05-12T06:49:34;100457.41;;;13.98;78.06
72961;BME280;61141;46.204;19.774;2023-05-12T06:52:38;100459.00;;;14.03;77.64
72961;BME280;61141;46.204;19.774;2023-05-12T06:55:41;100456.25;;;14.06;77.54
72961;BME280;61141;46.204;19.774;2023-05-12T06:58:45;100449.50;;;13.83;78.27
72961;BME280;61141;46.204;19.774;2023-05-12T07:01:49;100453.09;;;13.94;77.96
72961;BME280;61141;46.204;19.774;2023-05-12T07:04:52;100460.22;;;14.12;77.97
72961;BME280;61141;46.204;19.774;2023-05-12T07:07:55;100462.09;;;13.80;78.34
72961;BME280;61141;46.204;19.774;2023-05-12T07:11:01;100467.91;;;13.65;78.01
72961;BME280;61141;46.204;19.774;2023-05-12T07:14:03;100453.38;;;13.71;78.12
72961;BME280;61141;46.204;19.774;2023-05-12T07:17:06;100462.44;;;13.72;78.58
72961;BME280;61141;46.204;19.774;2023-05-12T07:20:11;100456.53;;;13.66;78.07
72961;BME280;61141;46.204;19.774;2023-05-12T07:23:14;100470.00;;;13.96;77.92
72961;BME280;61141;46.204;19.774;2023-05-12T07:26:18;100464.88;;;13.98;78.58
72961;BME280;61141;46.204;19.774;2023-05-12T07:29:21;100463.44;;;14.32;76.85
72961;BME280;61141;46.204;19.774;2023-05-12T07:32:24;100467.31;;;14.31;75.03
72961;BME280;61141;46.204;19.774;2023-05-12T07:35:27;100475.16;;;14.08;75.80
72961;BME280;61141;46.204;19.774;2023-05-12T07:38:29;100473.22;;;14.23;75.91
72961;BME280;61141;46.204;19.774;2023-05-12T07:41:33;100470.06;;;14.21;75.08
72961;BME280;61141;46.204;19.774;2023-05-12T07:44:36;100484.03;;;13.63;76.82
72961;BME280;61141;46.204;19.774;2023-05-12T07:47:38;100483.69;;;13.71;77.52
72961;BME280;61141;46.204;19.774;2023-05-12T07:50:41;100472.34;;;13.90;77.42
72961;BME280;61141;46.204;19.774;2023-05-12T07:53:44;100484.94;;;13.88;77.19
72961;BME280;61141;46.204;19.774;2023-05-12T07:56:47;100493.63;;;14.00;77.05
72961;BME280;61141;46.204;19.774;2023-05-12T07:59:50;100494.84;;;14.10;76.35
72961;BME280;61141;46.204;19.774;2023-05-12T08:02:53;100493.63;;;14.04;76.88
72961;BME280;61141;46.204;19.774;2023-05-12T08:05:57;100472.25;;;13.66;77.51
72961;BME280;61141;46.204;19.774;2023-05-12T08:08:59;100500.25;;;13.85;78.07
72961;BME280;61141;46.204;19.774;2023-05-12T08:12:03;100482.16;;;13.84;77.52
72961;BME280;61141;46.204;19.774;2023-05-12T08:15:06;100497.47;;;13.82;77.75
72961;BME280;61141;46.204;19.774;2023-05-12T08:18:09;100485.25;;;13.72;76.36
72961;BME280;61141;46.204;19.774;2023-05-12T08:21:14;100489.09;;;13.50;74.63
72961;BME280;61141;46.204;19.774;2023-05-12T08:24:17;100508.44;;;13.64;73.95
72961;BME280;61141;46.204;19.774;2023-05-12T08:27:20;100505.69;;;13.68;71.76
72961;BME280;61141;46.204;19.774;2023-05-12T08:30:23;100519.03;;;13.66;69.86
72961;BME280;61141;46.204;19.774;2023-05-12T08:33:25;100524.56;;;13.66;67.86
72961;BME280;61141;46.204;19.774;2023-05-12T08:36:29;100530.09;;;13.76;68.10
72961;BME280;61141;46.204;19.774;2023-05-12T08:39:32;100526.06;;;13.56;64.86
72961;BME280;61141;46.204;19.774;2023-05-12T08:42:42;100525.03;;;13.82;65.64
72961;BME280;61141;46.204;19.774;2023-05-12T08:45:45;100535.16;;;13.64;66.54
72961;BME280;61141;46.204;19.774;2023-05-12T08:48:49;100522.19;;;13.68;64.62
72961;BME280;61141;46.204;19.774;2023-05-12T08:51:57;100532.37;;;13.60;65.48
72961;BME280;61141;46.204;19.774;2023-05-12T08:55:03;100535.59;;;13.69;65.70
72961;BME280;61141;46.204;19.774;2023-05-12T08:58:06;100538.28;;;13.62;65.77
72961;BME280;61141;46.204;19.774;2023-05-12T09:01:11;100549.22;;;13.44;66.34
72961;BME280;61141;46.204;19.774;2023-05-12T09:04:16;100550.41;;;13.47;67.69
72961;BME280;61141;46.204;19.774;2023-05-12T09:07:20;100543.16;;;13.28;71.03
72961;BME280;61141;46.204;19.774;2023-05-12T09:10:28;100556.50;;;13.23;74.72
72961;BME280;61141;46.204;19.774;2023-05-12T09:16:42;100557.72;;;12.85;77.75
72961;BME280;61141;46.204;19.774;2023-05-12T09:19:45;100565.22;;;12.88;78.58
72961;BME280;61141;46.204;19.774;2023-05-12T09:22:50;100558.44;;;12.75;80.77
72961;BME280;61141;46.204;19.774;2023-05-12T09:25:59;100566.34;;;12.80;80.42
72961;BME280;61141;46.204;19.774;2023-05-12T09:29:06;100549.50;;;12.45;82.46
72961;BME280;61141;46.204;19.774;2023-05-12T09:32:10;100571.00;;;12.76;81.37
72961;BME280;61141;46.204;19.774;2023-05-12T09:35:13;100560.13;;;12.50;82.60
72961;BME280;61141;46.204;19.774;2023-05-12T09:38:16;100539.84;;;12.24;84.88
72961;BME280;61141;46.204;19.774;2023-05-12T09:41:22;100551.31;;;12.70;83.85
72961;BME280;61141;46.204;19.774;2023-05-12T09:44:25;100563.34;;;12.99;84.06
72961;BME280;61141;46.204;19.774;2023-05-12T09:47:34;100562.56;;;12.95;83.07
72961;BME280;61141;46.204;19.774;2023-05-12T09:50:49;100550.69;;;12.87;82.95
72961;BME280;61141;46.204;19.774;2023-05-12T09:53:52;100560.19;;;12.57;84.17
72961;BME280;61141;46.204;19.774;2023-05-12T09:56:59;100564.94;;;12.60;83.83
72961;BME280;61141;46.204;19.774;2023-05-12T10:00:03;100558.53;;;12.85;84.04
72961;BME280;61141;46.204;19.774;2023-05-12T10:03:15;100544.38;;;12.83;84.35
72961;BME280;61141;46.204;19.774;2023-05-12T10:06:39;100551.78;;;12.79;85.11
72961;BME280;61141;46.204;19.774;2023-05-12T10:09:44;100542.53;;;12.98;84.31
72961;BME280;61141;46.204;19.774;2023-05-12T10:12:49;100559.09;;;13.05;84.52
72961;BME280;61141;46.204;19.774;2023-05-12T10:15:55;100554.00;;;12.63;85.87
72961;BME280;61141;46.204;19.774;2023-05-12T10:18:59;100560.88;;;12.83;85.63
72961;BME280;61141;46.204;19.774;2023-05-12T10:22:02;100559.37;;;12.89;86.19
72961;BME280;61141;46.204;19.774;2023-05-12T10:25:07;100560.56;;;12.92;86.91
72961;BME280;61141;46.204;19.774;2023-05-12T10:28:11;100565.53;;;12.79;86.71
72961;BME280;61141;46.204;19.774;2023-05-12T10:31:14;100566.78;;;12.85;88.25
72961;BME280;61141;46.204;19.774;2023-05-12T10:34:17;100564.59;;;13.05;87.82
72961;BME280;61141;46.204;19.774;2023-05-12T10:37:21;100561.38;;;12.96;88.09
72961;BME280;61141;46.204;19.774;2023-05-12T10:40:24;100561.84;;;13.05;89.63
72961;BME280;61141;46.204;19.774;2023-05-12T10:43:37;100578.09;;;13.17;90.17
72961;BME280;61141;46.204;19.774;2023-05-12T10:46:40;100571.38;;;13.11;89.24
72961;BME280;61141;46.204;19.774;2023-05-12T10:49:46;100575.00;;;13.22;87.92
72961;BME280;61141;46.204;19.774;2023-05-12T10:52:54;100580.06;;;13.20;88.45
72961;BME280;61141;46.204;19.774;2023-05-12T10:55:57;100573.91;;;13.37;88.94
72961;BME280;61141;46.204;19.774;2023-05-12T10:59:06;100575.97;;;13.51;87.55
72961;BME280;61141;46.204;19.774;2023-05-12T11:02:18;100575.66;;;13.63;88.63
72961;BME280;61141;46.204;19.774;2023-05-12T11:05:32;100565.87;;;13.73;86.91
72961;BME280;61141;46.204;19.774;2023-05-12T11:08:36;100554.50;;;13.81;86.40
72961;BME280;61141;46.204;19.774;2023-05-12T11:11:39;100569.72;;;13.58;88.11
72961;BME280;61141;46.204;19.774;2023-05-12T11:14:43;100565.06;;;13.69;85.30
72961;BME280;61141;46.204;19.774;2023-05-12T11:17:47;100568.25;;;13.74;83.72
72961;BME280;61141;46.204;19.774;2023-05-12T11:20:49;100573.38;;;13.72;83.92
72961;BME280;61141;46.204;19.774;2023-05-12T11:23:53;100565.44;;;13.67;82.92
72961;BME280;61141;46.204;19.774;2023-05-12T11:26:56;100575.03;;;13.91;83.53
72961;BME280;61141;46.204;19.774;2023-05-12T11:30:01;100550.62;;;13.86;82.18
72961;BME280;61141;46.204;19.774;2023-05-12T11:33:04;100571.47;;;13.90;82.97
72961;BME280;61141;46.204;19.774;2023-05-12T11:36:08;100579.41;;;13.99;82.89
72961;BME280;61141;46.204;19.774;2023-05-12T11:39:15;100583.75;;;14.07;81.48
72961;BME280;61141;46.204;19.774;2023-05-12T11:42:18;100592.66;;;13.79;83.51
72961;BME280;61141;46.204;19.774;2023-05-12T11:45:26;100600.91;;;13.76;83.03
72961;BME280;61141;46.204;19.774;2023-05-12T11:48:34;100598.56;;;13.78;82.39
72961;BME280;61141;46.204;19.774;2023-05-12T11:51:40;100607.53;;;13.68;82.25
72961;BME280;61141;46.204;19.774;2023-05-12T11:57:57;100608.19;;;13.50;85.49
72961;BME280;61141;46.204;19.774;2023-05-12T12:01:08;100608.69;;;13.63;84.14
72961;BME280;61141;46.204;19.774;2023-05-12T12:04:13;100611.97;;;13.28;85.90
72961;BME280;61141;46.204;19.774;2023-05-12T12:07:29;100617.00;;;13.19;86.66
72961;BME280;61141;46.204;19.774;2023-05-12T12:10:34;100626.38;;;13.15;85.21
72961;BME280;61141;46.204;19.774;2023-05-12T12:13:37;100633.06;;;12.77;86.37
72961;BME280;61141;46.204;19.774;2023-05-12T12:16:40;100622.41;;;12.72;86.60
72961;BME280;61141;46.204;19.774;2023-05-12T12:19:42;100619.44;;;12.51;88.47
72961;BME280;61141;46.204;19.774;2023-05-12T12:22:45;100619.66;;;12.72;87.64
72961;BME280;61141;46.204;19.774;2023-05-12T12:25:48;100619.56;;;12.65;87.87
72961;BME280;61141;46.204;19.774;2023-05-12T12:28:51;100612.56;;;12.67;87.82
72961;BME280;61141;46.204;19.774;2023-05-12T12:31:54;100619.84;;;12.89;87.91
72961;BME280;61141;46.204;19.774;2023-05-12T12:34:57;100620.66;;;12.57;88.42
72961;BME280;61141;46.204;19.774;2023-05-12T12:38:02;100613.47;;;12.82;88.10
72961;BME280;61141;46.204;19.774;2023-05-12T12:41:06;100624.63;;;12.96;87.54
72961;BME280;61141;46.204;19.774;2023-05-12T12:44:09;100622.88;;;13.14;88.48
72961;BME280;61141;46.204;19.774;2023-05-12T12:47:12;100617.44;;;13.25;87.38
72961;BME280;61141;46.204;19.774;2023-05-12T12:50:15;100615.72;;;13.10;86.91
72961;BME280;61141;46.204;19.774;2023-05-12T12:53:18;100614.41;;;12.96;87.13
72961;BME280;61141;46.204;19.774;2023-05-12T12:56:20;100613.06;;;13.17;86.07
72961;BME280;61141;46.204;19.774;2023-05-12T12:59:27;100616.00;;;13.01;86.16
72961;BME280;61141;46.204;19.774;2023-05-12T13:02:29;100619.50;;;12.94;86.18
72961;BME280;61141;46.204;19.774;2023-05-12T13:05:33;100612.75;;;12.88;86.27
72961;BME280;61141;46.204;19.774;2023-05-12T13:08:35;100610.63;;;13.08;85.96
72961;BME280;61141;46.204;19.774;2023-05-12T13:11:38;100617.94;;;12.97;86.42
72961;BME280;61141;46.204;19.774;2023-05-12T13:14:41;100591.41;;;12.75;86.31
72961;BME280;61141;46.204;19.774;2023-05-12T13:17:44;100599.06;;;12.92;86.14
72961;BME280;61141;46.204;19.774;2023-05-12T13:20:49;100599.50;;;12.98;85.74
72961;BME280;61141;46.204;19.774;2023-05-12T13:23:53;100594.62;;;12.80;84.91
72961;BME280;61141;46.204;19.774;2023-05-12T13:26:55;100597.16;;;13.00;86.32
72961;BME280;61141;46.204;19.774;2023-05-12T13:29:59;100584.75;;;13.16;84.98
72961;BME280;61141;46.204;19.774;2023-05-12T13:33:01;100595.44;;;13.25;84.76
72961;BME280;61141;46.204;19.774;2023-05-12T13:36:07;100602.03;;;13.13;84.47
72961;BME280;61141;46.204;19.774;2023-05-12T13:39:10;100591.69;;;13.03;85.62
72961;BME280;61141;46.204;19.774;2023-05-12T13:42:14;100593.06;;;12.83;84.77
72961;BME280;61141;46.204;19.774;2023-05-12T13:45:17;100604.41;;;13.18;84.11
72961;BME280;61141;46.204;19.774;2023-05-12T13:48:21;100595.84;;;13.27;84.70
72961;BME280;61141;46.204;19.774;2023-05-12T13:51:24;100591.19;;;13.34;84.28
72961;BME280;61141;46.204;19.774;2023-05-12T13:54:27;100593.84;;;13.24;84.28
72961;BME280;61141;46.204;19.774;2023-05-12T13:57:30;100597.84;;;13.30;83.26
72961;BME280;61141;46.204;19.774;2023-05-12T14:00:33;100603.09;;;13.49;84.49
72961;BME280;61141;46.204;19.774;2023-05-12T14:03:36;100599.25;;;13.61;83.66
72961;BME280;61141;46.204;19.774;2023-05-12T14:06:39;100613.00;;;13.61;82.96
72961;BME280;61141;46.204;19.774;2023-05-12T14:09:42;100613.19;;;13.34;84.12
72961;BME280;61141;46.204;19.774;2023-05-12T14:12:44;100603.94;;;13.60;84.47
72961;BME280;61141;46.204;19.774;2023-05-12T14:15:48;100603.97;;;13.64;83.61
72961;BME280;61141;46.204;19.774;2023-05-12T14:18:51;100600.88;;;13.69;82.02
72961;BME280;61141;46.204;19.774;2023-05-12T14:21:54;100596.31;;;13.36;83.54
72961;BME280;61141;46.204;19.774;2023-05-12T14:24:57;100611.81;;;13.58;83.08
72961;BME280;61141;46.204;19.774;2023-05-12T14:28:00;100619.63;;;13.52;82.67
72961;BME280;61141;46.204;19.774;2023-05-12T14:31:03;100619.81;;;13.77;82.14
72961;BME280;61141;46.204;19.774;2023-05-12T14:34:06;100618.19;;;13.73;81.36
72961;BME280;61141;46.204;19.774;2023-05-12T14:37:10;100619.87;;;13.88;82.04
72961;BME280;61141;46.204;19.774;2023-05-12T14:40:14;100604.78;;;13.64;81.15
72961;BME280;61141;46.204;19.774;2023-05-12T14:43:17;100609.50;;;13.67;82.79
72961;BME280;61141;46.204;19.774;2023-05-12T14:46:20;100620.44;;;13.57;83.49
72961;BME280;61141;46.204;19.774;2023-05-12T14:49:23;100618.75;;;13.41;83.68
72961;BME280;61141;46.204;19.774;2023-05-12T14:52:26;100585.19;;;13.80;84.40
72961;BME280;61141;46.204;19.774;2023-05-12T14:55:29;100600.28;;;14.00;84.62
72961;BME280;61141;46.204;19.774;2023-05-12T14:58:32;100594.34;;;13.98;84.05
72961;BME280;61141;46.204;19.774;2023-05-12T15:01:35;100594.81;;;14.18;85.56
72961;BME280;61141;46.204;19.774;2023-05-12T15:04:38;100585.34;;;14.11;84.08
72961;BME280;61141;46.204;19.774;2023-05-12T15:07:40;100588.59;;;14.31;83.93
72961;BME280;61141;46.204;19.774;2023-05-12T15:10:43;100583.44;;;14.26;84.76
72961;BME280;61141;46.204;19.774;2023-05-12T15:13:46;100578.38;;;14.39;84.93
72961;BME280;61141;46.204;19.774;2023-05-12T15:16:49;100578.97;;;13.93;85.22
72961;BME280;61141;46.204;19.774;2023-05-12T15:19:52;100593.84;;;13.82;86.48
72961;BME280;61141;46.204;19.774;2023-05-12T15:22:55;100590.06;;;14.07;86.41
72961;BME280;61141;46.204;19.774;2023-05-12T15:25:58;100596.91;;;14.38;85.44
72961;BME280;61141;46.204;19.774;2023-05-12T15:29:16;100594.09;;;14.31;84.81
72961;BME280;61141;46.204;19.774;2023-05-12T15:32:19;100600.44;;;14.32;84.68
72961;BME280;61141;46.204;19.774;2023-05-12T15:35:23;100597.16;;;14.12;85.78
72961;BME280;61141;46.204;19.774;2023-05-12T15:38:25;100603.56;;;14.30;85.91
72961;BME280;61141;46.204;19.774;2023-05-12T15:41:32;100614.13;;;14.21;86.16
72961;BME280;61141;46.204;19.774;2023-05-12T15:44:34;100601.62;;;14.34;84.92
72961;BME280;61141;46.204;19.774;2023-05-12T15:47:38;100596.78;;;14.10;84.67
72961;BME280;61141;46.204;19.774;2023-05-12T15:50:40;100600.69;;;14.09;84.56
72961;BME280;61141;46.204;19.774;2023-05-12T15:53:43;100603.03;;;14.07;84.34
72961;BME280;61141;46.204;19.774;2023-05-12T15:56:47;100614.47;;;14.09;85.26